sensor_id;sensor_type;location;lat;lon;timestamp;P1;durP1;ratioP1;P2;durP2;ratioP2
15077;SDS011;7638;49.760;8.646;2023-11-21T00:00:35;2.03;;;1.83;;
15077;SDS011;7638;49.760;8.646;2023-11-21T00:05:49;1.43;;;0.97;;
15077;SDS011;7638;49.760;8.646;2023-11-21T00:08:15;1.50;;;0.90;;
15077;SDS011;7638;49.760;8.646;2023-11-21T00:10:41;1.50;;;0.93;;
15077;SDS011;7638;49.760;8.646;2023-11-21T00:13:07;4.87;;;1.53;;
15077;SDS011;7638;49.760;8.646;2023-11-21T00:15:33;1.60;;;1.20;;
15077;SDS011;7638;49.760;8.646;2023-11-21T00:17:59;1.83;;;1.03;;
15077;SDS011;7638;49.760;8.646;2023-11-21T00:20:25;3.17;;;1.10;;
15077;SDS011;7638;49.760;8.646;2023-11-21T00:22:51;3.00;;;1.10;;
15077;SDS011;7638;49.760;8.646;2023-11-21T00:25:17;2.00;;;1.00;;
15077;SDS011;7638;49.760;8.646;2023-11-21T00:27:43;2.53;;;1.20;;
15077;SDS011;7638;49.760;8.646;2023-11-21T00:30:09;4.10;;;1.30;;
15077;SDS011;7638;49.760;8.646;2023-11-21T00:32:37;3.20;;;1.20;;
15077;SDS011;7638;49.760;8.646;2023-11-21T00:35:04;2.17;;;1.17;;
15077;SDS011;7638;49.760;8.646;2023-11-21T00:37:31;2.13;;;0.93;;
15077;SDS011;7638;49.760;8.646;2023-11-21T00:39:57;2.43;;;1.13;;
15077;SDS011;7638;49.760;8.646;2023-11-21T00:42:23;4.60;;;1.47;;
15077;SDS011;7638;49.760;8.646;2023-11-21T00:44:49;2.40;;;0.90;;
15077;SDS011;7638;49.760;8.646;2023-11-21T00:47:15;1.60;;;0.97;;
15077;SDS011;7638;49.760;8.646;2023-11-21T00:49:41;1.27;;;1.17;;
15077;SDS011;7638;49.760;8.646;2023-11-21T00:52:08;1.23;;;1.13;;
15077;SDS011;7638;49.760;8.646;2023-11-21T00:54:34;2.27;;;1.43;;
15077;SDS011;7638;49.760;8.646;2023-11-21T00:57:01;1.43;;;1.00;;
15077;SDS011;7638;49.760;8.646;2023-11-21T00:59:27;1.60;;;1.40;;
15077;SDS011;7638;49.760;8.646;2023-11-21T01:01:53;1.80;;;1.70;;
15077;SDS011;7638;49.760;8.646;2023-11-21T01:04:19;1.73;;;1.53;;
15077;SDS011;7638;49.760;8.646;2023-11-21T01:06:45;5.47;;;1.60;;
15077;SDS011;7638;49.760;8.646;2023-11-21T01:09:11;3.47;;;1.60;;
15077;SDS011;7638;49.760;8.646;2023-11-21T01:11:37;4.00;;;1.63;;
15077;SDS011;7638;49.760;8.646;2023-11-21T01:14:04;5.50;;;1.97;;
15077;SDS011;7638;49.760;8.646;2023-11-21T01:16:30;2.40;;;2.13;;
15077;SDS011;7638;49.760;8.646;2023-11-21T01:18:57;3.73;;;1.80;;
15077;SDS011;7638;49.760;8.646;2023-11-21T01:21:24;2.53;;;1.80;;
15077;SDS011;7638;49.760;8.646;2023-11-21T01:23:50;2.40;;;1.97;;
15077;SDS011;7638;49.760;8.646;2023-11-21T01:26:16;4.30;;;2.80;;
15077;SDS011;7638;49.760;8.646;2023-11-21T01:28:42;3.83;;;2.07;;
15077;SDS011;7638;49.760;8.646;2023-11-21T01:31:08;6.57;;;2.37;;
15077;SDS011;7638;49.760;8.646;2023-11-21T01:33:34;2.80;;;1.77;;
15077;SDS011;7638;49.760;8.646;2023-11-21T01:35:59;3.10;;;1.77;;
15077;SDS011;7638;49.760;8.646;2023-11-21T01:38:25;4.43;;;1.63;;
15077;SDS011;7638;49.760;8.646;2023-11-21T01:40:52;1.63;;;1.53;;
15077;SDS011;7638;49.760;8.646;2023-11-21T01:43:18;3.17;;;1.97;;
15077;SDS011;7638;49.760;8.646;2023-11-21T01:45:44;3.90;;;1.90;;
15077;SDS011;7638;49.760;8.646;2023-11-21T01:48:13;1.83;;;1.70;;
15077;SDS011;7638;49.760;8.646;2023-11-21T01:50:41;1.40;;;1.30;;
15077;SDS011;7638;49.760;8.646;2023-11-21T01:53:07;1.57;;;1.47;;
15077;SDS011;7638;49.760;8.646;2023-11-21T01:55:34;4.60;;;2.07;;
15077;SDS011;7638;49.760;8.646;2023-11-21T01:58:00;6.63;;;2.20;;
15077;SDS011;7638;49.760;8.646;2023-11-21T02:00:26;6.10;;;2.50;;
15077;SDS011;7638;49.760;8.646;2023-11-21T02:02:53;2.70;;;2.03;;
15077;SDS011;7638;49.760;8.646;2023-11-21T02:05:19;2.33;;;2.13;;
15077;SDS011;7638;49.760;8.646;2023-11-21T02:07:46;2.90;;;1.60;;
15077;SDS011;7638;49.760;8.646;2023-11-21T02:10:17;3.83;;;1.60;;
15077;SDS011;7638;49.760;8.646;2023-11-21T02:12:47;2.93;;;1.60;;
15077;SDS011;7638;49.760;8.646;2023-11-21T02:15:15;5.43;;;1.57;;
15077;SDS011;7638;49.760;8.646;2023-11-21T02:17:51;1.63;;;1.50;;
15077;SDS011;7638;49.760;8.646;2023-11-21T02:20:18;4.20;;;1.73;;
15077;SDS011;7638;49.760;8.646;2023-11-21T02:22:52;2.57;;;1.80;;
15077;SDS011;7638;49.760;8.646;2023-11-21T02:25:25;3.47;;;2.10;;
15077;SDS011;7638;49.760;8.646;2023-11-21T02:27:52;4.03;;;1.70;;
15077;SDS011;7638;49.760;8.646;2023-11-21T02:30:20;1.53;;;1.43;;
15077;SDS011;7638;49.760;8.646;2023-11-21T02:32:46;2.20;;;1.77;;
15077;SDS011;7638;49.760;8.646;2023-11-21T02:35:13;1.67;;;1.20;;
15077;SDS011;7638;49.760;8.646;2023-11-21T02:37:39;4.43;;;1.80;;
15077;SDS011;7638;49.760;8.646;2023-11-21T02:40:06;2.27;;;1.67;;
15077;SDS011;7638;49.760;8.646;2023-11-21T02:42:34;2.47;;;1.83;;
15077;SDS011;7638;49.760;8.646;2023-11-21T02:45:00;2.03;;;1.50;;
15077;SDS011;7638;49.760;8.646;2023-11-21T02:47:26;2.00;;;1.60;;
15077;SDS011;7638;49.760;8.646;2023-11-21T02:49:52;2.87;;;2.00;;
15077;SDS011;7638;49.760;8.646;2023-11-21T02:52:18;2.63;;;1.60;;
15077;SDS011;7638;49.760;8.646;2023-11-21T02:54:44;3.10;;;1.90;;
15077;SDS011;7638;49.760;8.646;2023-11-21T02:57:10;5.40;;;2.00;;
15077;SDS011;7638;49.760;8.646;2023-11-21T02:59:36;2.50;;;1.90;;
15077;SDS011;7638;49.760;8.646;2023-11-21T03:02:02;3.20;;;2.10;;
15077;SDS011;7638;49.760;8.646;2023-11-21T03:04:28;3.57;;;2.07;;
15077;SDS011;7638;49.760;8.646;2023-11-21T03:06:55;3.97;;;1.77;;
15077;SDS011;7638;49.760;8.646;2023-11-21T03:09:21;2.50;;;1.70;;
15077;SDS011;7638;49.760;8.646;2023-11-21T03:11:47;1.87;;;1.50;;
15077;SDS011;7638;49.760;8.646;2023-11-21T03:14:13;4.10;;;1.87;;
15077;SDS011;7638;49.760;8.646;2023-11-21T03:16:39;2.23;;;1.80;;
15077;SDS011;7638;49.760;8.646;2023-11-21T03:19:06;3.23;;;1.90;;
15077;SDS011;7638;49.760;8.646;2023-11-21T03:21:33;1.63;;;1.50;;
15077;SDS011;7638;49.760;8.646;2023-11-21T03:23:59;1.57;;;1.47;;
15077;SDS011;7638;49.760;8.646;2023-11-21T03:26:25;1.93;;;1.73;;
15077;SDS011;7638;49.760;8.646;2023-11-21T03:28:51;3.47;;;1.97;;
15077;SDS011;7638;49.760;8.646;2023-11-21T03:31:18;3.90;;;2.10;;
15077;SDS011;7638;49.760;8.646;2023-11-21T03:33:45;1.23;;;1.13;;
15077;SDS011;7638;49.760;8.646;2023-11-21T03:36:12;2.43;;;1.10;;
15077;SDS011;7638;49.760;8.646;2023-11-21T03:38:39;1.53;;;1.43;;
15077;SDS011;7638;49.760;8.646;2023-11-21T03:41:06;3.53;;;1.67;;
15077;SDS011;7638;49.760;8.646;2023-11-21T03:43:32;2.47;;;1.43;;
15077;SDS011;7638;49.760;8.646;2023-11-21T03:45:58;2.40;;;1.40;;
15077;SDS011;7638;49.760;8.646;2023-11-21T03:48:24;2.67;;;1.93;;
15077;SDS011;7638;49.760;8.646;2023-11-21T03:50:50;2.07;;;1.50;;
15077;SDS011;7638;49.760;8.646;2023-11-21T03:53:16;3.80;;;1.50;;
15077;SDS011;7638;49.760;8.646;2023-11-21T03:55:42;2.57;;;1.30;;
15077;SDS011;7638;49.760;8.646;2023-11-21T03:58:08;3.47;;;1.43;;
15077;SDS011;7638;49.760;8.646;2023-11-21T04:03:16;2.30;;;1.57;;
15077;SDS011;7638;49.760;8.646;2023-11-21T04:05:42;3.60;;;1.40;;
15077;SDS011;7638;49.760;8.646;2023-11-21T04:08:09;2.13;;;1.70;;
15077;SDS011;7638;49.760;8.646;2023-11-21T04:10:34;3.50;;;1.50;;
15077;SDS011;7638;49.760;8.646;2023-11-21T04:13:01;4.90;;;1.87;;
15077;SDS011;7638;49.760;8.646;2023-11-21T04:15:27;2.20;;;1.60;;
15077;SDS011;7638;49.760;8.646;2023-11-21T04:17:53;3.23;;;1.50;;
15077;SDS011;7638;49.760;8.646;2023-11-21T04:20:19;2.23;;;1.70;;
15077;SDS011;7638;49.760;8.646;2023-11-21T04:22:45;5.07;;;2.03;;
15077;SDS011;7638;49.760;8.646;2023-11-21T04:25:11;2.57;;;1.83;;
15077;SDS011;7638;49.760;8.646;2023-11-21T04:27:40;3.10;;;1.70;;
15077;SDS011;7638;49.760;8.646;2023-11-21T04:30:08;2.17;;;1.67;;
15077;SDS011;7638;49.760;8.646;2023-11-21T04:32:38;4.57;;;1.87;;
15077;SDS011;7638;49.760;8.646;2023-11-21T04:35:07;4.17;;;1.63;;
15077;SDS011;7638;49.760;8.646;2023-11-21T04:37:33;4.70;;;2.13;;
15077;SDS011;7638;49.760;8.646;2023-11-21T04:39:59;3.90;;;2.00;;
15077;SDS011;7638;49.760;8.646;2023-11-21T04:42:25;3.60;;;1.60;;
15077;SDS011;7638;49.760;8.646;2023-11-21T04:44:51;1.53;;;1.43;;
15077;SDS011;7638;49.760;8.646;2023-11-21T04:47:17;2.20;;;1.67;;
15077;SDS011;7638;49.760;8.646;2023-11-21T04:49:45;2.93;;;1.50;;
15077;SDS011;7638;49.760;8.646;2023-11-21T04:52:14;2.40;;;1.57;;
15077;SDS011;7638;49.760;8.646;2023-11-21T04:54:40;4.20;;;1.80;;
15077;SDS011;7638;49.760;8.646;2023-11-21T04:57:07;3.00;;;1.97;;
15077;SDS011;7638;49.760;8.646;2023-11-21T04:59:34;5.27;;;2.10;;
15077;SDS011;7638;49.760;8.646;2023-11-21T05:02:00;2.57;;;1.67;;
15077;SDS011;7638;49.760;8.646;2023-11-21T05:04:26;3.17;;;2.00;;
15077;SDS011;7638;49.760;8.646;2023-11-21T05:06:52;5.90;;;2.10;;
15077;SDS011;7638;49.760;8.646;2023-11-21T05:09:18;5.27;;;2.43;;
15077;SDS011;7638;49.760;8.646;2023-11-21T05:11:44;6.03;;;3.13;;
15077;SDS011;7638;49.760;8.646;2023-11-21T05:14:10;2.80;;;2.43;;
15077;SDS011;7638;49.760;8.646;2023-11-21T05:16:36;6.33;;;3.23;;
15077;SDS011;7638;49.760;8.646;2023-11-21T05:19:03;4.20;;;3.27;;
15077;SDS011;7638;49.760;8.646;2023-11-21T05:21:30;3.73;;;2.90;;
15077;SDS011;7638;49.760;8.646;2023-11-21T05:24:00;13.70;;;4.77;;
15077;SDS011;7638;49.760;8.646;2023-11-21T05:26:26;6.40;;;5.30;;
15077;SDS011;7638;49.760;8.646;2023-11-21T05:28:52;7.43;;;5.37;;
15077;SDS011;7638;49.760;8.646;2023-11-21T05:31:18;6.23;;;5.33;;
15077;SDS011;7638;49.760;8.646;2023-11-21T05:33:44;7.67;;;5.70;;
15077;SDS011;7638;49.760;8.646;2023-11-21T05:36:10;8.37;;;6.20;;
15077;SDS011;7638;49.760;8.646;2023-11-21T05:38:37;10.10;;;6.07;;
15077;SDS011;7638;49.760;8.646;2023-11-21T05:41:03;7.43;;;5.27;;
15077;SDS011;7638;49.760;8.646;2023-11-21T05:43:29;10.60;;;5.83;;
15077;SDS011;7638;49.760;8.646;2023-11-21T05:45:55;8.43;;;5.20;;
15077;SDS011;7638;49.760;8.646;2023-11-21T05:48:21;7.43;;;5.87;;
15077;SDS011;7638;49.760;8.646;2023-11-21T05:50:48;8.77;;;5.53;;
15077;SDS011;7638;49.760;8.646;2023-11-21T05:53:14;9.80;;;6.37;;
15077;SDS011;7638;49.760;8.646;2023-11-21T05:55:41;10.37;;;6.77;;
15077;SDS011;7638;49.760;8.646;2023-11-21T05:58:07;8.63;;;7.03;;
15077;SDS011;7638;49.760;8.646;2023-11-21T06:00:33;7.33;;;6.60;;
15077;SDS011;7638;49.760;8.646;2023-11-21T06:02:59;7.70;;;6.57;;
15077;SDS011;7638;49.760;8.646;2023-11-21T06:05:25;8.00;;;6.13;;
15077;SDS011;7638;49.760;8.646;2023-11-21T06:07:52;7.10;;;6.40;;
15077;SDS011;7638;49.760;8.646;2023-11-21T06:10:22;8.93;;;6.87;;
15077;SDS011;7638;49.760;8.646;2023-11-21T06:12:48;8.30;;;7.17;;
15077;SDS011;7638;49.760;8.646;2023-11-21T06:15:14;8.50;;;6.17;;
15077;SDS011;7638;49.760;8.646;2023-11-21T06:17:41;8.83;;;6.43;;
15077;SDS011;7638;49.760;8.646;2023-11-21T06:20:08;8.70;;;5.67;;
15077;SDS011;7638;49.760;8.646;2023-11-21T06:22:37;6.73;;;5.87;;
15077;SDS011;7638;49.760;8.646;2023-11-21T06:25:04;10.07;;;6.67;;
15077;SDS011;7638;49.760;8.646;2023-11-21T06:27:31;9.37;;;5.97;;
15077;SDS011;7638;49.760;8.646;2023-11-21T06:29:58;8.40;;;6.13;;
15077;SDS011;7638;49.760;8.646;2023-11-21T06:32:24;8.70;;;6.07;;
15077;SDS011;7638;49.760;8.646;2023-11-21T06:34:51;7.20;;;6.30;;
15077;SDS011;7638;49.760;8.646;2023-11-21T06:37:19;9.17;;;6.53;;
15077;SDS011;7638;49.760;8.646;2023-11-21T06:39:48;6.43;;;5.73;;
15077;SDS011;7638;49.760;8.646;2023-11-21T06:42:14;7.53;;;5.73;;
15077;SDS011;7638;49.760;8.646;2023-11-21T06:44:40;5.90;;;5.07;;
15077;SDS011;7638;49.760;8.646;2023-11-21T06:47:06;8.33;;;5.43;;
15077;SDS011;7638;49.760;8.646;2023-11-21T06:49:32;8.47;;;6.27;;
15077;SDS011;7638;49.760;8.646;2023-11-21T06:51:58;6.30;;;5.20;;
15077;SDS011;7638;49.760;8.646;2023-11-21T06:54:27;4.43;;;3.47;;
15077;SDS011;7638;49.760;8.646;2023-11-21T06:56:54;3.83;;;3.03;;
15077;SDS011;7638;49.760;8.646;2023-11-21T06:59:21;2.00;;;1.80;;
15077;SDS011;7638;49.760;8.646;2023-11-21T07:01:48;1.23;;;1.10;;
15077;SDS011;7638;49.760;8.646;2023-11-21T07:04:14;0.93;;;0.93;;
15077;SDS011;7638;49.760;8.646;2023-11-21T07:06:40;0.70;;;0.70;;
15077;SDS011;7638;49.760;8.646;2023-11-21T07:09:08;1.00;;;0.77;;
15077;SDS011;7638;49.760;8.646;2023-11-21T07:11:34;0.80;;;0.80;;
15077;SDS011;7638;49.760;8.646;2023-11-21T07:14:00;0.90;;;0.60;;
15077;SDS011;7638;49.760;8.646;2023-11-21T07:16:35;0.50;;;0.50;;
15077;SDS011;7638;49.760;8.646;2023-11-21T07:19:06;0.47;;;0.40;;
15077;SDS011;7638;49.760;8.646;2023-11-21T07:21:35;0.60;;;0.60;;
15077;SDS011;7638;49.760;8.646;2023-11-21T07:24:02;0.40;;;0.40;;
15077;SDS011;7638;49.760;8.646;2023-11-21T07:26:29;0.50;;;0.50;;
15077;SDS011;7638;49.760;8.646;2023-11-21T07:28:55;0.47;;;0.30;;
15077;SDS011;7638;49.760;8.646;2023-11-21T07:31:21;2.77;;;0.53;;
15077;SDS011;7638;49.760;8.646;2023-11-21T07:33:47;0.40;;;0.40;;
15077;SDS011;7638;49.760;8.646;2023-11-21T07:36:14;0.43;;;0.43;;
15077;SDS011;7638;49.760;8.646;2023-11-21T07:38:41;0.60;;;0.60;;
15077;SDS011;7638;49.760;8.646;2023-11-21T07:41:08;1.33;;;0.80;;
15077;SDS011;7638;49.760;8.646;2023-11-21T07:43:35;0.73;;;0.60;;
15077;SDS011;7638;49.760;8.646;2023-11-21T07:46:01;0.60;;;0.60;;
15077;SDS011;7638;49.760;8.646;2023-11-21T07:48:28;0.77;;;0.70;;
15077;SDS011;7638;49.760;8.646;2023-11-21T07:50:54;0.93;;;0.80;;
15077;SDS011;7638;49.760;8.646;2023-11-21T07:53:20;0.70;;;0.60;;
15077;SDS011;7638;49.760;8.646;2023-11-21T07:55:47;0.80;;;0.70;;
15077;SDS011;7638;49.760;8.646;2023-11-21T07:58:13;1.03;;;0.80;;
15077;SDS011;7638;49.760;8.646;2023-11-21T08:00:39;1.87;;;1.00;;
15077;SDS011;7638;49.760;8.646;2023-11-21T08:03:05;1.00;;;0.90;;
15077;SDS011;7638;49.760;8.646;2023-11-21T08:05:31;0.80;;;0.80;;
15077;SDS011;7638;49.760;8.646;2023-11-21T08:07:57;2.30;;;0.83;;
15077;SDS011;7638;49.760;8.646;2023-11-21T08:10:23;0.97;;;0.90;;
15077;SDS011;7638;49.760;8.646;2023-11-21T08:12:50;1.57;;;1.07;;
15077;SDS011;7638;49.760;8.646;2023-11-21T08:15:16;1.87;;;0.90;;
15077;SDS011;7638;49.760;8.646;2023-11-21T08:17:42;0.93;;;0.90;;
15077;SDS011;7638;49.760;8.646;2023-11-21T08:20:08;1.00;;;0.90;;
15077;SDS011;7638;49.760;8.646;2023-11-21T08:22:37;1.43;;;1.17;;
15077;SDS011;7638;49.760;8.646;2023-11-21T08:25:06;1.43;;;1.23;;
15077;SDS011;7638;49.760;8.646;2023-11-21T08:27:33;2.83;;;1.63;;
15077;SDS011;7638;49.760;8.646;2023-11-21T08:29:59;2.33;;;1.93;;
15077;SDS011;7638;49.760;8.646;2023-11-21T08:32:25;2.30;;;2.07;;
15077;SDS011;7638;49.760;8.646;2023-11-21T08:34:51;4.17;;;2.50;;
15077;SDS011;7638;49.760;8.646;2023-11-21T08:37:17;2.47;;;2.27;;
15077;SDS011;7638;49.760;8.646;2023-11-21T08:39:44;2.53;;;2.30;;
15077;SDS011;7638;49.760;8.646;2023-11-21T08:42:10;3.67;;;2.70;;
15077;SDS011;7638;49.760;8.646;2023-11-21T08:44:36;4.37;;;3.17;;
15077;SDS011;7638;49.760;8.646;2023-11-21T08:47:03;3.57;;;2.43;;
15077;SDS011;7638;49.760;8.646;2023-11-21T08:49:30;3.17;;;2.40;;
15077;SDS011;7638;49.760;8.646;2023-11-21T08:51:56;4.43;;;2.87;;
15077;SDS011;7638;49.760;8.646;2023-11-21T08:54:24;4.43;;;2.87;;
15077;SDS011;7638;49.760;8.646;2023-11-21T08:56:51;5.93;;;2.87;;
15077;SDS011;7638;49.760;8.646;2023-11-21T08:59:17;6.47;;;3.17;;
15077;SDS011;7638;49.760;8.646;2023-11-21T09:01:45;7.50;;;4.70;;
15077;SDS011;7638;49.760;8.646;2023-11-21T09:04:11;5.67;;;4.20;;
15077;SDS011;7638;49.760;8.646;2023-11-21T09:06:38;5.60;;;4.37;;
15077;SDS011;7638;49.760;8.646;2023-11-21T09:09:04;9.10;;;4.83;;
15077;SDS011;7638;49.760;8.646;2023-11-21T09:11:31;4.50;;;3.70;;
15077;SDS011;7638;49.760;8.646;2023-11-21T09:13:58;4.53;;;3.80;;
15077;SDS011;7638;49.760;8.646;2023-11-21T09:16:24;5.60;;;3.30;;
15077;SDS011;7638;49.760;8.646;2023-11-21T09:18:50;3.73;;;3.40;;
15077;SDS011;7638;49.760;8.646;2023-11-21T09:21:16;3.47;;;2.93;;
15077;SDS011;7638;49.760;8.646;2023-11-21T09:23:44;4.57;;;3.30;;
15077;SDS011;7638;49.760;8.646;2023-11-21T09:26:10;3.70;;;3.07;;
15077;SDS011;7638;49.760;8.646;2023-11-21T09:28:37;4.83;;;2.90;;
15077;SDS011;7638;49.760;8.646;2023-11-21T09:31:04;3.20;;;2.70;;
15077;SDS011;7638;49.760;8.646;2023-11-21T09:33:33;3.13;;;2.83;;
15077;SDS011;7638;49.760;8.646;2023-11-21T09:35:59;3.83;;;3.23;;
15077;SDS011;7638;49.760;8.646;2023-11-21T09:38:26;3.33;;;2.57;;
15077;SDS011;7638;49.760;8.646;2023-11-21T09:40:53;3.43;;;3.03;;
15077;SDS011;7638;49.760;8.646;2023-11-21T09:43:20;5.73;;;3.30;;
15077;SDS011;7638;49.760;8.646;2023-11-21T09:45:48;4.37;;;2.77;;
15077;SDS011;7638;49.760;8.646;2023-11-21T09:48:18;3.90;;;3.20;;
15077;SDS011;7638;49.760;8.646;2023-11-21T09:50:45;3.83;;;3.17;;
15077;SDS011;7638;49.760;8.646;2023-11-21T09:55:45;3.20;;;2.87;;
15077;SDS011;7638;49.760;8.646;2023-11-21T09:58:13;5.73;;;3.37;;
15077;SDS011;7638;49.760;8.646;2023-11-21T10:00:40;3.80;;;3.00;;
15077;SDS011;7638;49.760;8.646;2023-11-21T10:03:07;3.97;;;2.63;;
15077;SDS011;7638;49.760;8.646;2023-11-21T10:05:34;4.60;;;2.97;;
15077;SDS011;7638;49.760;8.646;2023-11-21T10:08:00;3.00;;;2.53;;
15077;SDS011;7638;49.760;8.646;2023-11-21T10:10:26;3.57;;;2.80;;
15077;SDS011;7638;49.760;8.646;2023-11-21T10:12:55;3.80;;;2.67;;
15077;SDS011;7638;49.760;8.646;2023-11-21T10:15:22;3.97;;;2.77;;
15077;SDS011;7638;49.760;8.646;2023-11-21T10:17:50;6.80;;;2.23;;
15077;SDS011;7638;49.760;8.646;2023-11-21T10:20:18;3.93;;;2.63;;
15077;SDS011;7638;49.760;8.646;2023-11-21T10:22:45;7.53;;;2.37;;
15077;SDS011;7638;49.760;8.646;2023-11-21T10:25:11;4.07;;;2.00;;
15077;SDS011;7638;49.760;8.646;2023-11-21T10:27:39;5.53;;;2.37;;
15077;SDS011;7638;49.760;8.646;2023-11-21T10:30:06;3.33;;;2.37;;
15077;SDS011;7638;49.760;8.646;2023-11-21T10:32:33;2.57;;;1.90;;
15077;SDS011;7638;49.760;8.646;2023-11-21T10:34:59;5.13;;;2.43;;
15077;SDS011;7638;49.760;8.646;2023-11-21T10:37:27;3.57;;;2.10;;
15077;SDS011;7638;49.760;8.646;2023-11-21T10:39:57;2.80;;;2.43;;
15077;SDS011;7638;49.760;8.646;2023-11-21T10:42:23;6.57;;;2.80;;
15077;SDS011;7638;49.760;8.646;2023-11-21T10:44:49;4.20;;;2.70;;
15077;SDS011;7638;49.760;8.646;2023-11-21T10:47:17;4.10;;;2.30;;
15077;SDS011;7638;49.760;8.646;2023-11-21T10:49:44;7.43;;;2.30;;
15077;SDS011;7638;49.760;8.646;2023-11-21T10:52:12;2.90;;;2.43;;
15077;SDS011;7638;49.760;8.646;2023-11-21T10:54:42;5.30;;;2.53;;
15077;SDS011;7638;49.760;8.646;2023-11-21T10:57:08;2.47;;;1.93;;
15077;SDS011;7638;49.760;8.646;2023-11-21T10:59:35;3.93;;;2.47;;
15077;SDS011;7638;49.760;8.646;2023-11-21T11:02:09;8.10;;;2.70;;
15077;SDS011;7638;49.760;8.646;2023-11-21T11:04:39;3.37;;;2.07;;
15077;SDS011;7638;49.760;8.646;2023-11-21T11:07:05;3.50;;;2.30;;
15077;SDS011;7638;49.760;8.646;2023-11-21T11:09:34;3.50;;;2.17;;
15077;SDS011;7638;49.760;8.646;2023-11-21T11:12:04;3.27;;;2.17;;
15077;SDS011;7638;49.760;8.646;2023-11-21T11:14:31;6.70;;;2.40;;
15077;SDS011;7638;49.760;8.646;2023-11-21T11:16:57;2.80;;;2.23;;
15077;SDS011;7638;49.760;8.646;2023-11-21T11:19:25;5.43;;;2.13;;
15077;SDS011;7638;49.760;8.646;2023-11-21T11:27:33;2.07;;;1.70;;
15077;SDS011;7638;49.760;8.646;2023-11-21T11:30:19;2.47;;;2.27;;
15077;SDS011;7638;49.760;8.646;2023-11-21T11:35:34;4.57;;;2.90;;
15077;SDS011;7638;49.760;8.646;2023-11-21T11:37:58;3.30;;;2.00;;
15077;SDS011;7638;49.760;8.646;2023-11-21T11:40:28;3.10;;;1.80;;
15077;SDS011;7638;49.760;8.646;2023-11-21T11:43:05;2.87;;;2.10;;
15077;SDS011;7638;49.760;8.646;2023-11-21T11:45:32;2.23;;;1.83;;
15077;SDS011;7638;49.760;8.646;2023-11-21T11:47:59;4.17;;;2.27;;
15077;SDS011;7638;49.760;8.646;2023-11-21T11:50:26;3.20;;;1.80;;
15077;SDS011;7638;49.760;8.646;2023-11-21T11:52:52;3.33;;;1.83;;
15077;SDS011;7638;49.760;8.646;2023-11-21T11:55:23;2.77;;;1.80;;
15077;SDS011;7638;49.760;8.646;2023-11-21T11:57:53;2.50;;;1.80;;
15077;SDS011;7638;49.760;8.646;2023-11-21T12:02:55;5.10;;;2.37;;
15077;SDS011;7638;49.760;8.646;2023-11-21T12:05:27;2.53;;;1.83;;
15077;SDS011;7638;49.760;8.646;2023-11-21T12:07:54;2.77;;;1.50;;
15077;SDS011;7638;49.760;8.646;2023-11-21T12:10:25;2.63;;;1.80;;
15077;SDS011;7638;49.760;8.646;2023-11-21T12:15:17;9.37;;;2.17;;
15077;SDS011;7638;49.760;8.646;2023-11-21T12:17:44;9.57;;;1.97;;
15077;SDS011;7638;49.760;8.646;2023-11-21T12:20:13;2.87;;;1.57;;
15077;SDS011;7638;49.760;8.646;2023-11-21T12:22:46;4.83;;;1.60;;
15077;SDS011;7638;49.760;8.646;2023-11-21T12:25:13;2.23;;;1.57;;
15077;SDS011;7638;49.760;8.646;2023-11-21T12:27:44;2.70;;;1.67;;
15077;SDS011;7638;49.760;8.646;2023-11-21T12:30:11;4.07;;;1.50;;
15077;SDS011;7638;49.760;8.646;2023-11-21T12:32:42;6.60;;;1.87;;
15077;SDS011;7638;49.760;8.646;2023-11-21T12:35:11;5.57;;;1.73;;
15077;SDS011;7638;49.760;8.646;2023-11-21T12:37:38;4.37;;;1.63;;
15077;SDS011;7638;49.760;8.646;2023-11-21T12:40:05;4.97;;;1.63;;
15077;SDS011;7638;49.760;8.646;2023-11-21T12:42:33;4.03;;;1.70;;
15077;SDS011;7638;49.760;8.646;2023-11-21T12:45:09;3.77;;;1.60;;
15077;SDS011;7638;49.760;8.646;2023-11-21T12:47:40;3.90;;;1.67;;
15077;SDS011;7638;49.760;8.646;2023-11-21T12:50:06;5.10;;;1.67;;
15077;SDS011;7638;49.760;8.646;2023-11-21T12:52:39;2.90;;;1.77;;
15077;SDS011;7638;49.760;8.646;2023-11-21T12:55:05;4.03;;;1.47;;
15077;SDS011;7638;49.760;8.646;2023-11-21T12:57:33;5.30;;;1.90;;
15077;SDS011;7638;49.760;8.646;2023-11-21T12:59:59;3.67;;;1.60;;
15077;SDS011;7638;49.760;8.646;2023-11-21T13:02:36;4.40;;;1.80;;
15077;SDS011;7638;49.760;8.646;2023-11-21T13:05:03;3.70;;;1.80;;
15077;SDS011;7638;49.760;8.646;2023-11-21T13:07:41;2.67;;;2.10;;
15077;SDS011;7638;49.760;8.646;2023-11-21T13:10:12;4.23;;;2.00;;
15077;SDS011;7638;49.760;8.646;2023-11-21T13:12:42;5.80;;;2.10;;
15077;SDS011;7638;49.760;8.646;2023-11-21T13:15:09;7.60;;;2.13;;
15077;SDS011;7638;49.760;8.646;2023-11-21T13:17:35;5.90;;;2.03;;
15077;SDS011;7638;49.760;8.646;2023-11-21T13:20:01;6.77;;;1.83;;
15077;SDS011;7638;49.760;8.646;2023-11-21T13:22:31;7.07;;;3.03;;
15077;SDS011;7638;49.760;8.646;2023-11-21T13:24:58;3.97;;;2.70;;
15077;SDS011;7638;49.760;8.646;2023-11-21T13:27:24;4.33;;;2.17;;
15077;SDS011;7638;49.760;8.646;2023-11-21T13:29:51;5.77;;;2.60;;
15077;SDS011;7638;49.760;8.646;2023-11-21T13:32:17;6.27;;;2.23;;
15077;SDS011;7638;49.760;8.646;2023-11-21T13:34:45;5.10;;;2.97;;
15077;SDS011;7638;49.760;8.646;2023-11-21T13:37:12;4.20;;;2.93;;
15077;SDS011;7638;49.760;8.646;2023-11-21T13:39:39;6.97;;;2.83;;
15077;SDS011;7638;49.760;8.646;2023-11-21T13:42:09;7.23;;;2.77;;
15077;SDS011;7638;49.760;8.646;2023-11-21T13:44:36;4.43;;;2.50;;
15077;SDS011;7638;49.760;8.646;2023-11-21T13:47:03;4.77;;;2.30;;
15077;SDS011;7638;49.760;8.646;2023-11-21T13:49:30;6.50;;;2.40;;
15077;SDS011;7638;49.760;8.646;2023-11-21T13:52:01;6.33;;;2.83;;
15077;SDS011;7638;49.760;8.646;2023-11-21T13:54:28;5.87;;;3.17;;
15077;SDS011;7638;49.760;8.646;2023-11-21T13:56:54;7.47;;;2.93;;
15077;SDS011;7638;49.760;8.646;2023-11-21T13:59:20;10.97;;;3.33;;
15077;SDS011;7638;49.760;8.646;2023-11-21T14:01:50;8.60;;;3.57;;
15077;SDS011;7638;49.760;8.646;2023-11-21T14:04:20;6.43;;;3.30;;
15077;SDS011;7638;49.760;8.646;2023-11-21T14:07:07;6.30;;;2.97;;
15077;SDS011;7638;49.760;8.646;2023-11-21T14:09:45;5.20;;;3.20;;
15077;SDS011;7638;49.760;8.646;2023-11-21T14:12:14;9.93;;;3.40;;
15077;SDS011;7638;49.760;8.646;2023-11-21T14:14:40;4.83;;;2.80;;
15077;SDS011;7638;49.760;8.646;2023-11-21T14:17:07;12.67;;;2.70;;
15077;SDS011;7638;49.760;8.646;2023-11-21T14:19:33;4.80;;;2.37;;
15077;SDS011;7638;49.760;8.646;2023-11-21T14:22:03;8.67;;;2.53;;
15077;SDS011;7638;49.760;8.646;2023-11-21T14:24:29;11.90;;;3.27;;
15077;SDS011;7638;49.760;8.646;2023-11-21T14:26:57;6.80;;;3.13;;
15077;SDS011;7638;49.760;8.646;2023-11-21T14:29:23;6.87;;;3.33;;
15077;SDS011;7638;49.760;8.646;2023-11-21T14:31:49;4.13;;;2.73;;
15077;SDS011;7638;49.760;8.646;2023-11-21T14:34:16;4.90;;;3.10;;
15077;SDS011;7638;49.760;8.646;2023-11-21T14:36:43;5.43;;;2.50;;
15077;SDS011;7638;49.760;8.646;2023-11-21T14:39:10;3.23;;;2.50;;
15077;SDS011;7638;49.760;8.646;2023-11-21T14:41:49;4.50;;;2.67;;
15077;SDS011;7638;49.760;8.646;2023-11-21T14:44:15;3.20;;;2.57;;
15077;SDS011;7638;49.760;8.646;2023-11-21T14:46:42;6.07;;;2.73;;
15077;SDS011;7638;49.760;8.646;2023-11-21T14:49:11;4.90;;;2.33;;
15077;SDS011;7638;49.760;8.646;2023-11-21T14:51:52;4.97;;;2.87;;
15077;SDS011;7638;49.760;8.646;2023-11-21T14:54:48;7.27;;;3.37;;
15077;SDS011;7638;49.760;8.646;2023-11-21T14:57:24;3.33;;;2.30;;
15077;SDS011;7638;49.760;8.646;2023-11-21T14:59:52;4.87;;;2.70;;
15077;SDS011;7638;49.760;8.646;2023-11-21T15:02:22;7.13;;;3.17;;
15077;SDS011;7638;49.760;8.646;2023-11-21T15:05:09;6.80;;;2.83;;
15077;SDS011;7638;49.760;8.646;2023-11-21T15:07:43;4.00;;;2.37;;
15077;SDS011;7638;49.760;8.646;2023-11-21T15:10:10;4.90;;;2.37;;
15077;SDS011;7638;49.760;8.646;2023-11-21T15:12:39;2.77;;;2.50;;
15077;SDS011;7638;49.760;8.646;2023-11-21T15:15:08;7.67;;;2.53;;
15077;SDS011;7638;49.760;8.646;2023-11-21T15:17:35;5.77;;;3.03;;
15077;SDS011;7638;49.760;8.646;2023-11-21T15:20:02;4.30;;;3.20;;
15077;SDS011;7638;49.760;8.646;2023-11-21T15:22:31;6.57;;;2.60;;